Time;durP1;ratioP1;P1;durP2;ratioP2;P2;SDS_P1;SDS_P2;PMS_P1;PMS_P2;Temp;Humidity;BMP_temperature;BMP_pressure;BME280_temperature;BME280_humidity;BME280_pressure;Samples;Min_cycle;Max_cycle;Signal;HPM_P1;HPM_P2
2023/05/29 00:01:21;;;;;;;;;;;13.60;93.70;;;;;;5068838;28;19911;-41
2023/05/29 00:03:46;;;;;;;;;;;13.60;94.20;;;;;;5068765;28;19912;-41
2023/05/29 00:06:13;;;;;;;;;;;13.60;94.60;;;;;;5077097;28;19904;-41
2023/05/29 00:08:38;;;;;;;;;;;13.60;95.70;;;;;;5050588;28;19905;-42
2023/05/29 00:11:04;;;;;;;;;;;13.60;95.90;;;;;;5068997;28;19950;-42
2023/05/29 00:13:29;;;;;;;;;;;13.60;96.60;;;;;;5084568;28;19904;-42
2023/05/29 00:15:55;;;;;;;;;;;13.50;96.90;;;;;;5072189;28;20041;-43
2023/05/29 00:18:20;;;;;;;;;;;13.50;98.20;;;;;;5071391;28;19908;-42
2023/05/29 00:20:46;;;;;;;;;;;13.50;98.80;;;;;;5071850;28;19904;-41
2023/05/29 00:23:11;;;;;;;;;;;13.50;99.30;;;;;;5071864;28;19911;-41
2023/05/29 00:25:37;;;;;;;;;;;13.40;99.90;;;;;;5071908;28;19908;-41
2023/05/29 00:28:02;;;;;;;;;;;13.30;99.90;;;;;;5071537;28;19953;-42
2023/05/29 00:30:28;;;;;;;;;;;13.30;99.90;;;;;;5071753;28;20320;-42
2023/05/29 00:32:53;;;;;;;;;;;13.20;99.90;;;;;;5072231;28;19905;-41
2023/05/29 00:35:19;;;;;;;;;;;13.20;99.90;;;;;;5071670;28;19930;-41
2023/05/29 00:37:45;;;;;;;;;;;13.10;99.90;;;;;;5071172;28;19905;-41
2023/05/29 00:40:11;;;;;;;;;;;13.10;99.90;;;;;;5071132;28;19999;-42
2023/05/29 00:42:36;;;;;;;;;;;13.10;99.90;;;;;;5071669;28;19916;-42
2023/05/29 00:45:02;;;;;;;;;;;13.00;99.90;;;;;;5071603;28;20162;-41
2023/05/29 00:47:28;;;;;;;;;;;13.10;99.90;;;;;;5091100;28;20017;-41
2023/05/29 00:49:54;;;;;;;;;;;13.10;99.90;;;;;;5085539;28;19904;-42
2023/05/29 00:52:20;;;;;;;;;;;13.10;99.90;;;;;;5072120;28;19905;-43
2023/05/29 00:54:46;;;;;;;;;;;13.10;99.90;;;;;;5085097;28;19904;-43
2023/05/29 00:57:12;;;;;;;;;;;13.10;99.90;;;;;;5091149;28;19959;-41
2023/05/29 00:59:37;;;;;;;;;;;13.10;99.90;;;;;;5083661;28;19908;-41
2023/05/29 01:02:03;;;;;;;;;;;13.00;99.90;;;;;;5091719;28;19904;-43
2023/05/29 01:04:28;;;;;;;;;;;13.10;99.90;;;;;;5091454;28;20525;-46
2023/05/29 01:06:55;;;;;;;;;;;13.00;99.90;;;;;;5076872;28;19905;-41
2023/05/29 01:09:20;;;;;;;;;;;13.00;99.90;;;;;;5070756;28;19936;-42
2023/05/29 01:11:46;;;;;;;;;;;12.90;99.90;;;;;;5053197;28;20380;-41
2023/05/29 01:14:19;;;;;;;;;;;12.90;99.90;;;;;;5071089;28;19912;-42
2023/05/29 01:16:54;;;;;;;;;;;12.90;99.90;;;;;;5055522;28;19915;-41
2023/05/29 01:19:38;;;;;;;;;;;12.90;99.90;;;;;;5071143;28;19940;-41
2023/05/29 01:22:13;;;;;;;;;;;12.70;99.90;;;;;;5072758;28;20054;-42
2023/05/29 01:24:50;;;;;;;;;;;12.70;99.90;;;;;;5054180;28;19920;-42
2023/05/29 01:27:17;;;;;;;;;;;12.70;99.90;;;;;;5070397;28;19909;-41
2023/05/29 01:29:43;;;;;;;;;;;12.60;99.90;;;;;;5070333;28;19970;-42
2023/05/29 01:32:09;;;;;;;;;;;12.60;99.90;;;;;;5077407;28;19950;-42
2023/05/29 01:34:34;;;;;;;;;;;12.60;99.90;;;;;;5072248;28;20361;-41
2023/05/29 01:36:59;;;;;;;;;;;12.50;99.90;;;;;;5076122;28;19909;-41
2023/05/29 01:39:25;;;;;;;;;;;12.40;99.90;;;;;;5070032;28;20218;-42
2023/05/29 01:41:51;;;;;;;;;;;12.40;99.90;;;;;;5070471;28;19905;-41
2023/05/29 01:44:17;;;;;;;;;;;12.40;99.90;;;;;;5070267;28;19909;-43
2023/05/29 01:46:43;;;;;;;;;;;12.40;99.90;;;;;;5052351;28;19989;-42
2023/05/29 01:49:10;;;;;;;;;;;12.40;99.90;;;;;;5069973;28;20367;-46
2023/05/29 01:51:36;;;;;;;;;;;12.30;99.90;;;;;;5078695;28;20377;-41
2023/05/29 01:54:02;;;;;;;;;;;12.20;99.90;;;;;;5070521;28;19915;-43
2023/05/29 01:56:29;;;;;;;;;;;12.30;99.90;;;;;;5070461;28;19987;-41
2023/05/29 01:58:55;;;;;;;;;;;12.20;99.90;;;;;;5070029;28;19908;-41
2023/05/29 02:01:21;;;;;;;;;;;12.20;99.90;;;;;;5070277;28;20272;-43
2023/05/29 02:03:46;;;;;;;;;;;12.20;99.90;;;;;;5070151;28;19999;-45
2023/05/29 02:06:12;;;;;;;;;;;12.10;99.90;;;;;;5070237;28;20271;-44
2023/05/29 02:08:37;;;;;;;;;;;12.10;99.90;;;;;;5069841;28;19911;-42
2023/05/29 02:11:03;;;;;;;;;;;12.20;99.90;;;;;;5069959;28;19978;-42
2023/05/29 02:13:28;;;;;;;;;;;12.20;99.90;;;;;;5068893;28;19912;-41
2023/05/29 02:15:53;;;;;;;;;;;12.20;99.90;;;;;;5070392;28;19914;-43
2023/05/29 02:18:20;;;;;;;;;;;12.10;99.90;;;;;;5050621;28;20250;-45
2023/05/29 02:20:45;;;;;;;;;;;12.10;99.90;;;;;;5062258;28;19991;-42
2023/05/29 02:23:11;;;;;;;;;;;12.10;99.90;;;;;;5068486;28;20031;-41
2023/05/29 02:25:37;;;;;;;;;;;12.00;99.90;;;;;;5068702;28;19904;-42
2023/05/29 02:28:02;;;;;;;;;;;12.00;99.90;;;;;;5068201;28;19919;-41
2023/05/29 02:30:28;;;;;;;;;;;12.00;99.90;;;;;;5050396;28;19913;-40
2023/05/29 02:32:53;;;;;;;;;;;11.90;99.90;;;;;;5069693;28;20220;-41
2023/05/29 02:35:22;;;;;;;;;;;11.80;99.90;;;;;;5069505;28;19905;-42
2023/05/29 02:37:48;;;;;;;;;;;11.80;99.90;;;;;;5068234;28;20298;-42
2023/05/29 02:40:13;;;;;;;;;;;11.80;99.90;;;;;;5069326;28;19908;-41
2023/05/29 02:42:39;;;;;;;;;;;11.70;99.90;;;;;;5071675;28;19911;-42
2023/05/29 02:45:05;;;;;;;;;;;11.70;99.90;;;;;;5074134;28;20362;-43
2023/05/29 02:47:30;;;;;;;;;;;11.70;99.90;;;;;;5069040;28;19912;-41
2023/05/29 02:49:55;;;;;;;;;;;11.70;99.90;;;;;;5082823;28;19908;-41
2023/05/29 02:52:22;;;;;;;;;;;11.70;99.90;;;;;;5088043;28;19915;-41
2023/05/29 02:54:48;;;;;;;;;;;11.80;99.90;;;;;;5085143;28;19908;-42
2023/05/29 02:57:14;;;;;;;;;;;11.70;99.90;;;;;;5068752;28;19926;-42
2023/05/29 02:59:39;;;;;;;;;;;11.80;99.90;;;;;;5070905;28;19966;-41
2023/05/29 03:02:05;;;;;;;;;;;11.80;99.90;;;;;;5068868;28;19927;-42
2023/05/29 03:04:30;;;;;;;;;;;11.80;99.90;;;;;;5068817;28;20251;-41
2023/05/29 03:06:56;;;;;;;;;;;11.80;99.90;;;;;;5069336;28;19904;-42
2023/05/29 03:09:21;;;;;;;;;;;11.80;99.90;;;;;;5068369;28;19904;-41
2023/05/29 03:11:49;;;;;;;;;;;11.70;99.90;;;;;;5080569;28;19908;-41
2023/05/29 03:14:15;;;;;;;;;;;11.70;99.90;;;;;;5081029;28;20421;-41
2023/05/29 03:16:40;;;;;;;;;;;11.70;99.90;;;;;;5088980;28;20007;-43
2023/05/29 03:19:07;;;;;;;;;;;11.70;99.90;;;;;;5073067;28;20289;-42
2023/05/29 03:21:32;;;;;;;;;;;11.70;99.90;;;;;;5076866;28;19935;-42
2023/05/29 03:23:58;;;;;;;;;;;11.70;99.90;;;;;;5068568;28;19905;-41
2023/05/29 03:26:23;;;;;;;;;;;11.70;99.90;;;;;;5068323;28;19944;-42
2023/05/29 03:28:49;;;;;;;;;;;11.70;99.90;;;;;;5068089;28;20358;-41
2023/05/29 03:31:14;;;;;;;;;;;11.60;99.90;;;;;;5068213;28;20366;-42
2023/05/29 03:33:40;;;;;;;;;;;11.60;99.90;;;;;;5070166;28;19978;-43
2023/05/29 03:36:07;;;;;;;;;;;11.50;99.90;;;;;;5068036;28;19911;-42
2023/05/29 03:38:33;;;;;;;;;;;11.50;99.90;;;;;;5068499;28;19970;-42
2023/05/29 03:40:58;;;;;;;;;;;11.50;99.90;;;;;;5069182;28;19939;-42
2023/05/29 03:43:23;;;;;;;;;;;11.50;99.90;;;;;;5069684;28;20358;-42
2023/05/29 03:45:49;;;;;;;;;;;11.50;99.90;;;;;;5084415;28;19905;-41
2023/05/29 03:48:15;;;;;;;;;;;11.50;99.90;;;;;;5068956;28;19919;-43
2023/05/29 03:50:40;;;;;;;;;;;11.50;99.90;;;;;;5080850;28;19911;-42
2023/05/29 03:53:06;;;;;;;;;;;11.50;99.90;;;;;;5072592;28;20003;-42
2023/05/29 03:55:31;;;;;;;;;;;11.50;99.90;;;;;;5072472;28;19911;-43
2023/05/29 03:57:57;;;;;;;;;;;11.50;99.90;;;;;;5077753;28;20074;-41
2023/05/29 04:00:22;;;;;;;;;;;11.50;99.90;;;;;;5083962;28;20389;-42
2023/05/29 04:02:47;;;;;;;;;;;11.60;99.90;;;;;;5072587;28;20402;-41
2023/05/29 04:05:13;;;;;;;;;;;11.70;99.90;;;;;;5072348;28;20396;-42
2023/05/29 04:07:38;;;;;;;;;;;11.70;99.90;;;;;;5088705;28;19904;-42
2023/05/29 04:10:04;;;;;;;;;;;11.80;99.90;;;;;;5087098;28;20399;-42
2023/05/29 04:12:31;;;;;;;;;;;11.80;99.90;;;;;;5073930;28;19905;-41
2023/05/29 04:14:56;;;;;;;;;;;11.90;99.90;;;;;;5072396;28;19911;-42
2023/05/29 04:17:22;;;;;;;;;;;12.00;99.90;;;;;;5072642;28;19908;-41
2023/05/29 04:19:47;;;;;;;;;;;12.00;99.90;;;;;;5071418;28;20316;-41
2023/05/29 04:22:13;;;;;;;;;;;12.00;99.90;;;;;;5071873;28;20348;-41
2023/05/29 04:24:38;;;;;;;;;;;12.10;99.90;;;;;;5072169;28;20308;-41
2023/05/29 04:27:04;;;;;;;;;;;12.20;99.90;;;;;;5072211;28;19979;-42
2023/05/29 04:29:30;;;;;;;;;;;12.20;99.90;;;;;;5071603;28;20354;-41
2023/05/29 04:31:55;;;;;;;;;;;12.30;99.90;;;;;;5072112;28;19943;-41
2023/05/29 04:34:21;;;;;;;;;;;12.30;99.90;;;;;;5071744;28;19909;-42
2023/05/29 04:36:47;;;;;;;;;;;12.40;99.90;;;;;;5054104;28;20350;-48
2023/05/29 04:39:13;;;;;;;;;;;12.40;99.90;;;;;;5079771;28;19965;-48
2023/05/29 04:41:40;;;;;;;;;;;12.50;99.90;;;;;;5071501;28;19995;-49
2023/05/29 04:44:06;;;;;;;;;;;12.50;99.90;;;;;;5078179;28;20062;-48
2023/05/29 04:46:31;;;;;;;;;;;12.50;99.90;;;;;;5082026;28;20042;-49
2023/05/29 04:48:57;;;;;;;;;;;12.60;99.90;;;;;;5071101;28;20243;-48
2023/05/29 04:51:22;;;;;;;;;;;12.70;99.90;;;;;;5071411;28;19904;-48
2023/05/29 04:53:48;;;;;;;;;;;12.70;99.90;;;;;;5071441;28;19907;-48
2023/05/29 04:56:14;;;;;;;;;;;12.80;99.90;;;;;;5071527;28;19912;-48
2023/05/29 04:58:40;;;;;;;;;;;12.80;99.90;;;;;;5086034;28;19978;-49
2023/05/29 05:01:07;;;;;;;;;;;12.90;99.90;;;;;;5070923;28;19944;-51
2023/05/29 05:03:33;;;;;;;;;;;12.90;99.90;;;;;;5069843;28;20003;-48
2023/05/29 05:06:00;;;;;;;;;;;13.00;99.90;;;;;;5071509;28;20551;-52
2023/05/29 05:08:25;;;;;;;;;;;13.00;99.90;;;;;;5079092;28;19950;-48
2023/05/29 05:10:51;;;;;;;;;;;13.00;99.90;;;;;;5071000;28;20149;-51
2023/05/29 05:13:16;;;;;;;;;;;13.00;99.90;;;;;;5078977;28;19904;-49
2023/05/29 05:15:42;;;;;;;;;;;13.00;99.90;;;;;;5090297;28;19969;-52
2023/05/29 05:18:08;;;;;;;;;;;13.00;99.90;;;;;;5089927;28;19911;-52
2023/05/29 05:20:34;;;;;;;;;;;13.00;99.90;;;;;;5088475;28;19904;-52
2023/05/29 05:23:01;;;;;;;;;;;13.00;99.90;;;;;;5071919;28;20050;-52
2023/05/29 05:25:26;;;;;;;;;;;12.90;99.90;;;;;;5071079;28;19998;-51
2023/05/29 05:27:52;;;;;;;;;;;12.90;99.90;;;;;;5070554;28;20008;-49
2023/05/29 05:30:17;;;;;;;;;;;13.00;99.90;;;;;;5071163;28;19930;-49
2023/05/29 05:32:43;;;;;;;;;;;13.00;99.90;;;;;;5070630;28;19905;-51
2023/05/29 05:35:11;;;;;;;;;;;13.10;99.90;;;;;;5070655;28;20403;-52
2023/05/29 05:37:37;;;;;;;;;;;13.10;99.90;;;;;;5070404;28;20315;-52
2023/05/29 05:40:03;;;;;;;;;;;13.10;99.90;;;;;;5069774;28;19913;-50
2023/05/29 05:42:28;;;;;;;;;;;13.10;99.90;;;;;;5051619;28;19910;-52
2023/05/29 05:44:54;;;;;;;;;;;13.20;99.90;;;;;;5069212;28;20003;-52
2023/05/29 05:47:20;;;;;;;;;;;13.10;99.90;;;;;;5051252;28;19953;-52
2023/05/29 05:49:45;;;;;;;;;;;13.20;99.90;;;;;;5068567;28;20454;-48
2023/05/29 05:52:11;;;;;;;;;;;13.20;99.90;;;;;;5069248;28;19908;-49
2023/05/29 05:54:39;;;;;;;;;;;13.30;99.90;;;;;;5069254;28;20484;-52
2023/05/29 05:57:06;;;;;;;;;;;13.40;99.90;;;;;;5082702;28;19911;-52
2023/05/29 05:59:31;;;;;;;;;;;13.40;99.90;;;;;;5072509;28;20003;-52
2023/05/29 06:01:57;;;;;;;;;;;13.50;99.90;;;;;;5075475;28;19995;-52
2023/05/29 06:04:23;;;;;;;;;;;13.50;99.90;;;;;;5073693;28;20257;-50
2023/05/29 06:06:48;;;;;;;;;;;13.60;99.90;;;;;;5078253;28;19904;-49
2023/05/29 06:09:14;;;;;;;;;;;13.70;99.90;;;;;;5069678;28;20338;-49
2023/05/29 06:11:39;;;;;;;;;;;13.90;99.90;;;;;;5069579;28;19927;-50
2023/05/29 06:14:05;;;;;;;;;;;14.00;99.90;;;;;;5083090;28;19929;-49
2023/05/29 06:16:31;;;;;;;;;;;14.20;99.90;;;;;;5072268;28;19995;-49
2023/05/29 06:18:57;;;;;;;;;;;14.30;99.90;;;;;;5074176;28;20375;-49
2023/05/29 06:21:23;;;;;;;;;;;14.40;99.90;;;;;;5063765;28;20318;-51
2023/05/29 06:23:48;;;;;;;;;;;14.50;99.90;;;;;;5078266;28;19997;-49
2023/05/29 06:26:15;;;;;;;;;;;14.50;99.90;;;;;;5051777;28;19914;-51
2023/05/29 06:28:41;;;;;;;;;;;14.40;99.90;;;;;;5079486;28;19949;-49
2023/05/29 06:31:06;;;;;;;;;;;14.50;99.90;;;;;;5075400;28;20343;-50
2023/05/29 06:33:32;;;;;;;;;;;14.50;99.90;;;;;;5069554;28;19947;-49
2023/05/29 06:35:57;;;;;;;;;;;14.60;99.90;;;;;;5069979;28;19930;-48
2023/05/29 06:38:23;;;;;;;;;;;14.70;99.90;;;;;;5069152;28;20270;-48
2023/05/29 06:40:48;;;;;;;;;;;14.70;99.90;;;;;;5069379;28;20056;-49
2023/05/29 06:43:14;;;;;;;;;;;14.70;99.90;;;;;;5069771;28;19909;-48
2023/05/29 06:45:40;;;;;;;;;;;14.70;99.90;;;;;;5069537;28;19999;-52
2023/05/29 06:48:06;;;;;;;;;;;14.90;99.90;;;;;;5083002;28;20358;-50
2023/05/29 06:50:31;;;;;;;;;;;15.20;99.90;;;;;;5089596;28;20095;-52
2023/05/29 06:52:57;;;;;;;;;;;15.50;99.90;;;;;;5077232;28;19904;-51
2023/05/29 06:55:22;;;;;;;;;;;15.60;99.90;;;;;;5069750;28;20277;-49
2023/05/29 06:57:48;;;;;;;;;;;15.70;99.90;;;;;;5068948;28;19920;-49
2023/05/29 07:00:13;;;;;;;;;;;15.80;99.90;;;;;;5069369;28;20302;-49
2023/05/29 07:02:39;;;;;;;;;;;15.90;99.90;;;;;;5069275;28;19969;-49
2023/05/29 07:05:04;;;;;;;;;;;15.90;99.90;;;;;;5069102;28;19912;-48
2023/05/29 07:07:30;;;;;;;;;;;16.00;99.90;;;;;;5068901;28;19911;-49
2023/05/29 07:09:55;;;;;;;;;;;16.10;99.90;;;;;;5073011;28;19904;-52
2023/05/29 07:12:24;;;;;;;;;;;16.20;99.90;;;;;;5073381;28;20378;-52
2023/05/29 07:14:50;;;;;;;;;;;16.30;99.90;;;;;;5087404;28;20104;-52
2023/05/29 07:17:15;;;;;;;;;;;16.50;99.90;;;;;;5079796;28;20361;-53
2023/05/29 07:19:41;;;;;;;;;;;16.70;99.90;;;;;;5085853;28;20164;-52
2023/05/29 07:22:07;;;;;;;;;;;16.80;99.90;;;;;;5050953;28;19904;-49
2023/05/29 07:24:32;;;;;;;;;;;17.00;99.90;;;;;;5068687;28;19939;-50
2023/05/29 07:26:57;;;;;;;;;;;17.10;99.90;;;;;;5073223;28;19990;-52
2023/05/29 07:29:23;;;;;;;;;;;17.40;99.90;;;;;;5072777;28;20308;-51
2023/05/29 07:31:50;;;;;;;;;;;17.40;99.90;;;;;;5054092;28;19926;-52
2023/05/29 07:34:16;;;;;;;;;;;17.60;99.90;;;;;;5064596;28;19909;-52
2023/05/29 07:36:57;;;;;;;;;;;17.50;99.90;;;;;;5071166;28;19904;-52
2023/05/29 07:39:23;;;;;;;;;;;17.60;99.90;;;;;;5070768;28;20004;-52
2023/05/29 07:41:50;;;;;;;;;;;17.70;99.90;;;;;;5068474;28;19920;-49
2023/05/29 07:44:15;;;;;;;;;;;17.50;99.90;;;;;;5062597;28;20327;-51
2023/05/29 07:46:40;;;;;;;;;;;17.40;99.90;;;;;;5079055;28;19910;-49
2023/05/29 07:49:06;;;;;;;;;;;17.40;99.90;;;;;;5068657;28;20433;-52
2023/05/29 07:51:32;;;;;;;;;;;17.60;99.90;;;;;;5084993;28;20411;-52
2023/05/29 07:53:57;;;;;;;;;;;17.70;99.90;;;;;;5076747;28;19904;-52
2023/05/29 07:56:23;;;;;;;;;;;17.80;99.90;;;;;;5068609;28;19998;-52
2023/05/29 07:58:48;;;;;;;;;;;17.90;99.90;;;;;;5066559;28;19920;-49
2023/05/29 08:01:14;;;;;;;;;;;17.90;99.00;;;;;;5068816;28;20360;-50
2023/05/29 08:03:41;;;;;;;;;;;18.10;99.40;;;;;;5068780;28;19939;-49
2023/05/29 08:06:06;;;;;;;;;;;18.20;99.70;;;;;;5068567;28;19904;-49
2023/05/29 08:08:32;;;;;;;;;;;18.50;99.60;;;;;;5067704;28;20022;-49
2023/05/29 08:10:57;;;;;;;;;;;18.60;99.20;;;;;;5069040;28;19911;-51
2023/05/29 08:13:23;;;;;;;;;;;19.10;98.90;;;;;;5076186;28;19904;-51
2023/05/29 08:15:48;;;;;;;;;;;19.50;97.00;;;;;;5072594;28;20278;-50
2023/05/29 08:18:14;;;;;;;;;;;20.00;97.00;;;;;;5067728;28;19943;-51
2023/05/29 08:20:40;;;;;;;;;;;21.10;95.40;;;;;;5068153;28;19904;-53
2023/05/29 08:23:05;;;;;;;;;;;22.40;91.70;;;;;;5068552;28;19905;-51
2023/05/29 08:25:31;;;;;;;;;;;23.20;88.10;;;;;;5068109;28;19904;-53
2023/05/29 08:27:56;;;;;;;;;;;23.80;84.90;;;;;;5079737;28;20003;-51
2023/05/29 08:30:22;;;;;;;;;;;24.30;78.30;;;;;;5088872;28;19958;-52
2023/05/29 08:32:47;;;;;;;;;;;24.60;74.20;;;;;;5088568;28;20003;-52
2023/05/29 08:35:13;;;;;;;;;;;25.10;73.70;;;;;;5076099;28;19952;-51
2023/05/29 08:37:38;;;;;;;;;;;24.70;73.00;;;;;;5071588;28;19905;-49
2023/05/29 08:40:08;;;;;;;;;;;24.80;73.40;;;;;;5083283;28;19916;-52
2023/05/29 08:42:36;;;;;;;;;;;25.00;71.60;;;;;;5074680;28;19904;-50
2023/05/29 08:45:02;;;;;;;;;;;25.50;71.30;;;;;;5071833;28;20380;-51
2023/05/29 08:47:32;;;;;;;;;;;26.40;70.50;;;;;;5071630;28;20408;-52
2023/05/29 08:49:58;;;;;;;;;;;27.10;67.30;;;;;;5063370;28;20401;-52
2023/05/29 08:52:26;;;;;;;;;;;27.80;66.10;;;;;;5085996;28;20381;-52
2023/05/29 08:54:55;;;;;;;;;;;27.90;64.90;;;;;;5072104;28;19912;-52
2023/05/29 08:57:21;;;;;;;;;;;28.00;63.10;;;;;;5071347;28;19916;-51
2023/05/29 08:59:49;;;;;;;;;;;27.10;64.10;;;;;;5070586;28;20427;-52
2023/05/29 09:02:15;;;;;;;;;;;27.70;63.20;;;;;;5071377;28;19904;-53
2023/05/29 09:04:41;;;;;;;;;;;28.00;61.40;;;;;;5071323;28;19912;-54
2023/05/29 09:07:10;;;;;;;;;;;28.40;61.00;;;;;;5080998;28;19904;-52
2023/05/29 09:09:36;;;;;;;;;;;28.40;59.40;;;;;;5055873;28;19912;-53
2023/05/29 09:12:04;;;;;;;;;;;28.30;59.40;;;;;;5071869;28;20027;-52
2023/05/29 09:14:37;;;;;;;;;;;28.50;60.60;;;;;;5071424;28;19904;-52
2023/05/29 09:17:05;;;;;;;;;;;28.90;57.60;;;;;;5064205;28;20002;-51
2023/05/29 09:19:31;;;;;;;;;;;29.10;58.30;;;;;;5069052;28;19908;-52
2023/05/29 09:22:03;;;;;;;;;;;29.50;59.30;;;;;;5071137;28;20378;-52
2023/05/29 09:24:29;;;;;;;;;;;29.40;55.40;;;;;;5071501;28;19927;-53
2023/05/29 09:26:56;;;;;;;;;;;29.20;56.90;;;;;;5071137;28;20361;-52
2023/05/29 09:29:22;;;;;;;;;;;29.70;56.30;;;;;;5070605;28;19943;-52
2023/05/29 09:31:47;;;;;;;;;;;30.10;56.10;;;;;;5070792;28;19993;-53
2023/05/29 09:34:13;;;;;;;;;;;31.00;54.50;;;;;;5070793;28;19909;-53
2023/05/29 09:36:38;;;;;;;;;;;30.80;54.30;;;;;;5086051;28;20343;-53
2023/05/29 09:39:04;;;;;;;;;;;31.50;53.40;;;;;;5068753;28;19909;-53
2023/05/29 09:41:33;;;;;;;;;;;31.90;50.80;;;;;;5071249;28;19994;-53
2023/05/29 09:44:00;;;;;;;;;;;31.90;52.00;;;;;;5070617;28;19904;-53
2023/05/29 09:46:26;;;;;;;;;;;32.60;51.20;;;;;;5069434;28;20325;-53
2023/05/29 09:48:51;;;;;;;;;;;32.10;49.50;;;;;;5069811;28;19908;-53
2023/05/29 09:51:23;;;;;;;;;;;32.50;49.80;;;;;;5070734;28;19912;-53
2023/05/29 09:53:50;;;;;;;;;;;32.80;51.60;;;;;;5070751;28;20007;-53
2023/05/29 09:56:17;;;;;;;;;;;32.60;49.40;;;;;;5070367;28;19916;-54
2023/05/29 09:58:45;;;;;;;;;;;33.60;49.10;;;;;;5069761;28;20313;-53
2023/05/29 10:01:17;;;;;;;;;;;32.80;49.60;;;;;;5070289;28;19911;-53
2023/05/29 10:03:43;;;;;;;;;;;32.10;48.00;;;;;;5069943;28;20485;-53
2023/05/29 10:06:11;;;;;;;;;;;32.10;50.10;;;;;;5070179;28;20003;-54
2023/05/29 10:08:37;;;;;;;;;;;32.00;49.00;;;;;;5069765;28;20034;-53
2023/05/29 10:11:09;;;;;;;;;;;31.90;47.30;;;;;;5070116;28;19908;-53
2023/05/29 10:13:37;;;;;;;;;;;31.80;49.40;;;;;;5070797;28;19958;-53
2023/05/29 10:16:06;;;;;;;;;;;31.50;47.40;;;;;;5070086;28;19908;-53
2023/05/29 10:18:36;;;;;;;;;;;30.40;48.20;;;;;;5069679;28;19904;-53
2023/05/29 10:21:02;;;;;;;;;;;30.90;48.80;;;;;;5074065;28;19930;-53
2023/05/29 10:23:28;;;;;;;;;;;31.30;49.30;;;;;;5074273;28;19904;-52
2023/05/29 10:25:59;;;;;;;;;;;31.70;48.60;;;;;;5051591;28;19995;-53
2023/05/29 10:28:25;;;;;;;;;;;31.30;47.70;;;;;;5066941;28;19911;-52
2023/05/29 10:30:55;;;;;;;;;;;30.80;47.80;;;;;;5079450;28;19904;-51
2023/05/29 10:33:28;;;;;;;;;;;31.20;49.10;;;;;;5069854;28;19931;-52
2023/05/29 10:36:00;;;;;;;;;;;31.30;49.20;;;;;;5069604;28;19943;-52
2023/05/29 10:38:26;;;;;;;;;;;31.30;49.00;;;;;;5077836;28;19904;-52
2023/05/29 10:40:51;;;;;;;;;;;31.30;50.70;;;;;;5077550;28;20375;-52
2023/05/29 10:43:32;;;;;;;;;;;31.40;50.70;;;;;;5069422;28;19940;-51
2023/05/29 10:45:57;;;;;;;;;;;31.90;47.00;;;;;;5069318;28;19912;-51
2023/05/29 10:48:28;;;;;;;;;;;30.80;49.60;;;;;;5068856;28;19908;-53
2023/05/29 10:50:54;;;;;;;;;;;30.40;48.80;;;;;;5069714;28;19908;-53
2023/05/29 10:53:23;;;;;;;;;;;30.40;50.80;;;;;;5069426;28;19904;-51
2023/05/29 10:55:50;;;;;;;;;;;30.40;52.30;;;;;;5068978;28;19912;-52
2023/05/29 10:58:19;;;;;;;;;;;30.50;49.50;;;;;;5068622;28;19911;-52
2023/05/29 11:00:48;;;;;;;;;;;30.90;50.30;;;;;;5069345;28;19935;-52
2023/05/29 11:03:24;;;;;;;;;;;31.60;48.80;;;;;;5069274;28;19946;-51
2023/05/29 11:06:05;;;;;;;;;;;32.00;48.60;;;;;;5068845;28;19915;-52
2023/05/29 11:08:37;;;;;;;;;;;31.90;46.60;;;;;;5083233;28;19943;-52
2023/05/29 11:11:03;;;;;;;;;;;31.80;47.60;;;;;;5085917;28;19950;-52
2023/05/29 11:13:35;;;;;;;;;;;32.50;48.20;;;;;;5069244;28;19905;-52
2023/05/29 11:16:19;;;;;;;;;;;32.40;48.30;;;;;;5069193;28;19905;-53
2023/05/29 11:18:48;;;;;;;;;;;32.80;46.50;;;;;;5067094;28;19908;-52
2023/05/29 11:21:31;;;;;;;;;;;32.80;47.10;;;;;;5069037;28;19930;-53
2023/05/29 11:23:58;;;;;;;;;;;32.80;46.00;;;;;;5068722;28;19908;-53
2023/05/29 11:26:26;;;;;;;;;;;32.70;46.60;;;;;;5069064;28;20202;-51
2023/05/29 11:28:52;;;;;;;;;;;32.50;46.50;;;;;;5068366;28;19910;-52
2023/05/29 11:31:19;;;;;;;;;;;32.50;46.80;;;;;;5068927;28;19986;-52
2023/05/29 11:33:49;;;;;;;;;;;31.80;46.90;;;;;;5069011;28;19905;-52
2023/05/29 11:36:15;;;;;;;;;;;31.30;48.30;;;;;;5069235;28;19904;-53
2023/05/29 11:38:41;;;;;;;;;;;31.50;47.50;;;;;;5068570;28;19908;-52
2023/05/29 11:41:07;;;;;;;;;;;31.40;48.80;;;;;;5068844;28;20330;-52
2023/05/29 11:43:32;;;;;;;;;;;30.60;47.10;;;;;;5068981;28;19908;-52
2023/05/29 11:45:58;;;;;;;;;;;29.20;50.00;;;;;;5069160;28;19904;-52
2023/05/29 11:48:24;;;;;;;;;;;28.40;50.50;;;;;;5068679;28;19911;-51
2023/05/29 11:50:49;;;;;;;;;;;28.40;50.80;;;;;;5069093;28;20011;-51
2023/05/29 11:53:15;;;;;;;;;;;29.30;50.30;;;;;;5068863;28;19911;-52
2023/05/29 11:55:40;;;;;;;;;;;29.70;50.00;;;;;;5068565;28;20402;-51
2023/05/29 11:58:06;;;;;;;;;;;28.90;50.00;;;;;;5068585;28;19951;-50
2023/05/29 12:00:33;;;;;;;;;;;28.00;50.10;;;;;;5068940;28;19908;-52
2023/05/29 12:03:03;;;;;;;;;;;27.30;51.70;;;;;;5068492;28;19905;-51
2023/05/29 12:05:29;;;;;;;;;;;26.90;54.00;;;;;;5082216;28;20418;-51
2023/05/29 12:07:56;;;;;;;;;;;27.20;52.30;;;;;;5069597;28;19982;-51
2023/05/29 12:10:22;;;;;;;;;;;26.90;54.00;;;;;;5070593;28;19995;-51
2023/05/29 12:12:48;;;;;;;;;;;27.10;53.70;;;;;;5072908;28;19908;-52
2023/05/29 12:15:14;;;;;;;;;;;26.70;55.80;;;;;;5072252;28;20305;-51
2023/05/29 12:17:40;;;;;;;;;;;26.40;55.50;;;;;;5087272;28;19910;-52
2023/05/29 12:20:08;;;;;;;;;;;26.10;55.10;;;;;;5079999;28;20289;-49
2023/05/29 12:22:35;;;;;;;;;;;26.40;55.90;;;;;;5076143;28;20154;-52
2023/05/29 12:25:23;;;;;;;;;;;25.60;54.10;;;;;;5071986;28;19955;-50
2023/05/29 12:27:49;;;;;;;;;;;25.70;55.90;;;;;;5060577;28;19910;-51
2023/05/29 12:30:20;;;;;;;;;;;25.50;53.70;;;;;;5072018;28;20213;-50
2023/05/29 12:32:46;;;;;;;;;;;25.90;54.10;;;;;;5072131;28;20274;-50
2023/05/29 12:35:13;;;;;;;;;;;26.00;56.80;;;;;;5083381;28;19911;-49
2023/05/29 12:37:58;;;;;;;;;;;26.20;54.40;;;;;;5092058;28;19903;-50
2023/05/29 12:40:24;;;;;;;;;;;26.30;54.90;;;;;;5065815;28;19912;-50
2023/05/29 12:42:57;;;;;;;;;;;26.20;52.70;;;;;;5071713;28;19958;-52
2023/05/29 12:45:24;;;;;;;;;;;26.30;53.80;;;;;;5071766;28;20373;-52
2023/05/29 12:47:50;;;;;;;;;;;26.50;53.50;;;;;;5070959;28;20003;-52
2023/05/29 12:50:20;;;;;;;;;;;26.00;52.40;;;;;;5071590;28;20042;-51
2023/05/29 12:52:45;;;;;;;;;;;25.40;54.10;;;;;;5070423;28;20297;-50
2023/05/29 12:55:11;;;;;;;;;;;25.10;54.10;;;;;;5070234;28;20209;-51
2023/05/29 12:57:36;;;;;;;;;;;25.10;55.50;;;;;;5071453;28;19912;-50
2023/05/29 13:00:02;;;;;;;;;;;25.40;55.80;;;;;;5071484;28;19919;-51
2023/05/29 13:02:29;;;;;;;;;;;25.30;54.60;;;;;;5071585;28;19973;-52
2023/05/29 13:04:54;;;;;;;;;;;25.30;53.00;;;;;;5071481;28;19904;-50
2023/05/29 13:07:20;;;;;;;;;;;25.10;54.50;;;;;;5071488;28;19904;-49
2023/05/29 13:09:46;;;;;;;;;;;25.30;53.10;;;;;;5070979;28;19936;-51
2023/05/29 13:12:12;;;;;;;;;;;25.50;53.80;;;;;;5071244;28;19911;-52
2023/05/29 13:14:37;;;;;;;;;;;25.60;53.00;;;;;;5085602;28;19904;-52
2023/05/29 13:17:03;;;;;;;;;;;25.80;53.90;;;;;;5091403;28;19931;-49
2023/05/29 13:19:28;;;;;;;;;;;25.90;54.10;;;;;;5082360;28;19934;-51
2023/05/29 13:21:54;;;;;;;;;;;25.70;53.80;;;;;;5072941;28;19914;-52
2023/05/29 13:24:19;;;;;;;;;;;25.50;53.70;;;;;;5071005;28;19904;-50
2023/05/29 13:26:45;;;;;;;;;;;25.80;52.40;;;;;;5071201;28;19936;-52
2023/05/29 13:29:10;;;;;;;;;;;25.60;54.00;;;;;;5078817;28;19911;-52
2023/05/29 13:31:35;;;;;;;;;;;25.50;52.40;;;;;;5070988;28;19911;-51
2023/05/29 13:34:01;;;;;;;;;;;25.10;54.80;;;;;;5070919;28;19908;-49
2023/05/29 13:36:26;;;;;;;;;;;24.90;54.50;;;;;;5070912;28;19905;-52
2023/05/29 13:38:52;;;;;;;;;;;25.00;55.60;;;;;;5078397;28;19908;-52
2023/05/29 13:41:17;;;;;;;;;;;25.50;57.90;;;;;;5082671;28;19970;-49
2023/05/29 13:43:43;;;;;;;;;;;26.00;56.10;;;;;;5074858;28;19915;-51
2023/05/29 13:46:08;;;;;;;;;;;26.40;55.60;;;;;;5070510;28;20262;-50
2023/05/29 13:48:33;;;;;;;;;;;26.30;53.00;;;;;;5075630;28;19904;-49
2023/05/29 13:50:59;;;;;;;;;;;25.80;53.80;;;;;;5090704;28;19912;-49
2023/05/29 13:53:24;;;;;;;;;;;25.90;54.00;;;;;;5077271;28;19912;-49
2023/05/29 13:55:50;;;;;;;;;;;26.00;54.40;;;;;;5070374;28;20408;-49
2023/05/29 13:58:15;;;;;;;;;;;25.80;53.50;;;;;;5069808;28;20285;-49
2023/05/29 14:00:41;;;;;;;;;;;25.80;55.10;;;;;;5070350;28;19915;-51
2023/05/29 14:03:07;;;;;;;;;;;25.80;52.90;;;;;;5070136;28;19954;-49
2023/05/29 14:05:32;;;;;;;;;;;25.50;54.20;;;;;;5070426;28;19904;-49
2023/05/29 14:07:58;;;;;;;;;;;25.50;53.50;;;;;;5069585;28;19966;-51
2023/05/29 14:10:23;;;;;;;;;;;25.50;54.10;;;;;;5052208;28;19904;-52
2023/05/29 14:12:49;;;;;;;;;;;25.40;52.90;;;;;;5076753;28;19910;-51